Flight Instructor Certification

REQUIREMENTS:
  • 18 years of age
  • Commercial Pilot CertificateRead, speak & understand English
  • 2nd Class Medical Certificate
  • Pass Written, Oral & Flight Test
AVERAGE TRAINING ESTIMATE:

Flight Training including:

  • 10 Hours in a Piper Arrow
  • 5 Hours in Diamond Katana DA20

  35 Hours of Instruction

MATERIALS:
Curriculum & Charts

**Please Note: Times are ESTIMATED and TOTAL HOURS each student may need to achieve competency may vary per individual.

NOAA Weather

Smyrna, TN

Last Updated on Dec 17 2017, 8:56 pm CST

Current Conditions: Fog/Mist

NOAA Icon

Temp: 46°F

Wind: North at 0mph

Humidity: 100%

Dewpoint: 46.0°F

Your 5-Day Forecast at a Glance

Available data for KMQY from the past 2 hours
SMYRNA, TN
Metar
KMQY 180256Z AUTO 00000KT 2 1/2SM BR OVC006 08/08 A3017 RMK AO2 SLP196 60000 T00780078 58001

02:56 UTC

Wind: 0° 0kt

Visibility: 2.5 SM

Sky: OVC 600 ft

Temp: 8 deg C / 46.4 deg F

Dewpoint: 8 deg C / 46.4 deg F

Pressure: 30.17 inHg

TAF
KMQY 180206Z 1802/1824 VRB03KT 1 1/2SM -DZ BR OVC005 FM181400 20005KT P6SM OVC015
Pireps (5)
LOZ UA /OV LVT338015/TM 0239/FL400/TP B737/TB LGT-MOD CHOP/RM CONT LGT OCNL MOD CHOP/ WITH WAVE ACTION
KBNA UA /OV BNA090005/TM 0149/FL004/TP B737/SK OVC004-TOP040
ARP UAL2072 3636N 08510W 0139 F350 258/111 TB LGT SK ON TOP IC NONE RM B739 OV SWAPP
ARP UAL2072 3636N 08510W 0139 F330 263/109 TB SMTH SK ON TOP IC NONE RM B739 OV SWAPP
HSV UA /OV HSV/TM 0103/FLDURGC/TP E145/SK OVC012-024